sensor_id;sensor_type;location;lat;lon;timestamp;P1;durP1;ratioP1;P2;durP2;ratioP2
77402;SDS011;66472;53.046;8.656;2023-04-16T00:01:05;25.83;;;21.67;;
77402;SDS011;66472;53.046;8.656;2023-04-16T00:06:02;27.60;;;24.27;;
77402;SDS011;66472;53.046;8.656;2023-04-16T00:10:57;28.17;;;25.43;;
77402;SDS011;66472;53.046;8.656;2023-04-16T00:15:53;27.08;;;24.38;;
77402;SDS011;66472;53.046;8.656;2023-04-16T00:20:48;29.30;;;26.47;;
77402;SDS011;66472;53.046;8.656;2023-04-16T00:25:44;27.67;;;24.87;;
77402;SDS011;66472;53.046;8.656;2023-04-16T00:30:40;30.93;;;27.73;;
77402;SDS011;66472;53.046;8.656;2023-04-16T00:35:35;31.07;;;27.20;;
77402;SDS011;66472;53.046;8.656;2023-04-16T00:40:30;29.83;;;26.63;;
77402;SDS011;66472;53.046;8.656;2023-04-16T00:45:26;31.70;;;26.70;;
77402;SDS011;66472;53.046;8.656;2023-04-16T00:50:21;30.17;;;27.17;;
77402;SDS011;66472;53.046;8.656;2023-04-16T00:55:17;34.40;;;29.17;;
77402;SDS011;66472;53.046;8.656;2023-04-16T01:00:13;30.80;;;26.90;;
77402;SDS011;66472;53.046;8.656;2023-04-16T01:05:08;31.30;;;27.03;;
77402;SDS011;66472;53.046;8.656;2023-04-16T01:10:16;29.27;;;26.30;;
77402;SDS011;66472;53.046;8.656;2023-04-16T01:15:11;32.03;;;28.20;;
77402;SDS011;66472;53.046;8.656;2023-04-16T01:20:06;31.27;;;28.17;;
77402;SDS011;66472;53.046;8.656;2023-04-16T01:25:02;31.20;;;27.73;;
77402;SDS011;66472;53.046;8.656;2023-04-16T01:29:57;35.03;;;28.87;;
77402;SDS011;66472;53.046;8.656;2023-04-16T01:35:04;35.13;;;28.90;;
77402;SDS011;66472;53.046;8.656;2023-04-16T01:40:00;33.57;;;29.00;;
77402;SDS011;66472;53.046;8.656;2023-04-16T01:44:55;31.20;;;27.23;;
77402;SDS011;66472;53.046;8.656;2023-04-16T01:49:50;35.20;;;29.53;;
77402;SDS011;66472;53.046;8.656;2023-04-16T01:54:46;33.60;;;30.03;;
77402;SDS011;66472;53.046;8.656;2023-04-16T01:59:41;32.73;;;29.13;;
77402;SDS011;66472;53.046;8.656;2023-04-16T02:04:37;34.67;;;28.23;;
77402;SDS011;66472;53.046;8.656;2023-04-16T02:09:33;31.57;;;26.70;;
77402;SDS011;66472;53.046;8.656;2023-04-16T02:14:29;35.03;;;30.23;;
77402;SDS011;66472;53.046;8.656;2023-04-16T02:19:25;31.77;;;28.33;;
77402;SDS011;66472;53.046;8.656;2023-04-16T02:24:20;32.67;;;29.37;;
77402;SDS011;66472;53.046;8.656;2023-04-16T02:29:15;30.93;;;27.43;;
77402;SDS011;66472;53.046;8.656;2023-04-16T02:34:15;37.90;;;28.07;;
77402;SDS011;66472;53.046;8.656;2023-04-16T02:39:11;31.10;;;27.90;;
77402;SDS011;66472;53.046;8.656;2023-04-16T02:44:06;34.22;;;27.52;;
77402;SDS011;66472;53.046;8.656;2023-04-16T02:49:01;30.95;;;27.75;;
77402;SDS011;66472;53.046;8.656;2023-04-16T02:53:57;31.27;;;28.07;;
77402;SDS011;66472;53.046;8.656;2023-04-16T02:58:52;31.65;;;27.02;;
77402;SDS011;66472;53.046;8.656;2023-04-16T03:03:47;30.73;;;27.60;;
77402;SDS011;66472;53.046;8.656;2023-04-16T03:08:43;29.07;;;26.10;;
77402;SDS011;66472;53.046;8.656;2023-04-16T03:13:38;30.83;;;27.70;;
77402;SDS011;66472;53.046;8.656;2023-04-16T03:18:34;28.73;;;25.83;;
77402;SDS011;66472;53.046;8.656;2023-04-16T03:23:29;30.07;;;26.13;;
77402;SDS011;66472;53.046;8.656;2023-04-16T03:28:24;31.10;;;27.50;;
77402;SDS011;66472;53.046;8.656;2023-04-16T03:33:20;33.87;;;27.60;;
77402;SDS011;66472;53.046;8.656;2023-04-16T03:38:15;32.07;;;28.57;;
77402;SDS011;66472;53.046;8.656;2023-04-16T03:43:11;31.07;;;26.13;;
77402;SDS011;66472;53.046;8.656;2023-04-16T03:48:07;29.87;;;26.70;;
77402;SDS011;66472;53.046;8.656;2023-04-16T03:53:02;31.05;;;27.98;;
77402;SDS011;66472;53.046;8.656;2023-04-16T03:57:58;28.67;;;25.60;;
77402;SDS011;66472;53.046;8.656;2023-04-16T04:02:57;30.60;;;27.33;;
77402;SDS011;66472;53.046;8.656;2023-04-16T04:07:52;33.23;;;26.83;;
77402;SDS011;66472;53.046;8.656;2023-04-16T04:12:48;31.10;;;26.00;;
77402;SDS011;66472;53.046;8.656;2023-04-16T04:17:43;28.80;;;25.70;;
77402;SDS011;66472;53.046;8.656;2023-04-16T04:22:38;34.70;;;28.60;;
77402;SDS011;66472;53.046;8.656;2023-04-16T04:27:34;30.67;;;27.53;;
77402;SDS011;66472;53.046;8.656;2023-04-16T04:32:29;31.83;;;28.63;;
77402;SDS011;66472;53.046;8.656;2023-04-16T04:37:25;30.27;;;27.13;;
77402;SDS011;66472;53.046;8.656;2023-04-16T04:42:20;29.73;;;26.60;;
77402;SDS011;66472;53.046;8.656;2023-04-16T04:47:16;30.63;;;27.37;;
77402;SDS011;66472;53.046;8.656;2023-04-16T04:52:11;28.37;;;25.37;;
77402;SDS011;66472;53.046;8.656;2023-04-16T04:57:08;27.07;;;24.43;;
77402;SDS011;66472;53.046;8.656;2023-04-16T05:02:04;27.70;;;23.50;;
77402;SDS011;66472;53.046;8.656;2023-04-16T05:06:59;30.10;;;27.00;;
77402;SDS011;66472;53.046;8.656;2023-04-16T05:11:56;31.70;;;26.67;;
77402;SDS011;66472;53.046;8.656;2023-04-16T05:16:51;28.48;;;25.13;;
77402;SDS011;66472;53.046;8.656;2023-04-16T05:21:47;26.25;;;23.48;;
77402;SDS011;66472;53.046;8.656;2023-04-16T05:26:42;29.97;;;26.07;;
77402;SDS011;66472;53.046;8.656;2023-04-16T05:31:37;26.95;;;24.10;;
77402;SDS011;66472;53.046;8.656;2023-04-16T05:36:32;25.93;;;23.23;;
77402;SDS011;66472;53.046;8.656;2023-04-16T05:41:27;27.30;;;24.37;;
77402;SDS011;66472;53.046;8.656;2023-04-16T05:46:23;29.60;;;23.80;;
77402;SDS011;66472;53.046;8.656;2023-04-16T05:51:18;25.98;;;23.00;;
77402;SDS011;66472;53.046;8.656;2023-04-16T05:56:16;27.70;;;23.83;;
77402;SDS011;66472;53.046;8.656;2023-04-16T06:01:11;25.00;;;22.33;;
77402;SDS011;66472;53.046;8.656;2023-04-16T06:06:06;27.55;;;24.55;;
77402;SDS011;66472;53.046;8.656;2023-04-16T06:11:02;26.83;;;23.93;;
77402;SDS011;66472;53.046;8.656;2023-04-16T06:15:58;26.83;;;23.03;;
77402;SDS011;66472;53.046;8.656;2023-04-16T06:20:53;24.93;;;22.23;;
77402;SDS011;66472;53.046;8.656;2023-04-16T06:25:48;25.92;;;21.90;;
77402;SDS011;66472;53.046;8.656;2023-04-16T06:30:45;24.80;;;20.60;;
77402;SDS011;66472;53.046;8.656;2023-04-16T06:35:40;21.53;;;19.33;;
77402;SDS011;66472;53.046;8.656;2023-04-16T06:40:35;22.87;;;19.40;;
77402;SDS011;66472;53.046;8.656;2023-04-16T06:45:31;23.90;;;19.73;;
77402;SDS011;66472;53.046;8.656;2023-04-16T06:50:26;27.98;;;19.00;;
77402;SDS011;66472;53.046;8.656;2023-04-16T06:55:22;21.43;;;18.53;;
77402;SDS011;66472;53.046;8.656;2023-04-16T07:00:17;22.73;;;19.07;;
77402;SDS011;66472;53.046;8.656;2023-04-16T07:05:13;20.37;;;17.67;;
77402;SDS011;66472;53.046;8.656;2023-04-16T07:10:08;24.03;;;19.37;;
77402;SDS011;66472;53.046;8.656;2023-04-16T07:15:04;20.77;;;18.13;;
77402;SDS011;66472;53.046;8.656;2023-04-16T07:20:00;23.10;;;17.50;;
77402;SDS011;66472;53.046;8.656;2023-04-16T07:24:55;23.50;;;18.00;;
77402;SDS011;66472;53.046;8.656;2023-04-16T07:29:51;20.90;;;18.53;;
77402;SDS011;66472;53.046;8.656;2023-04-16T07:34:46;20.33;;;17.60;;
77402;SDS011;66472;53.046;8.656;2023-04-16T07:39:41;27.15;;;18.50;;
77402;SDS011;66472;53.046;8.656;2023-04-16T07:44:36;21.10;;;18.90;;
77402;SDS011;66472;53.046;8.656;2023-04-16T07:49:32;20.45;;;17.27;;
77402;SDS011;66472;53.046;8.656;2023-04-16T07:54:27;19.27;;;17.20;;
77402;SDS011;66472;53.046;8.656;2023-04-16T07:59:22;20.37;;;17.20;;
77402;SDS011;66472;53.046;8.656;2023-04-16T08:04:18;19.77;;;17.67;;
77402;SDS011;66472;53.046;8.656;2023-04-16T08:09:21;19.33;;;17.33;;
77402;SDS011;66472;53.046;8.656;2023-04-16T08:14:17;20.53;;;18.60;;
77402;SDS011;66472;53.046;8.656;2023-04-16T08:19:12;19.70;;;16.70;;
77402;SDS011;66472;53.046;8.656;2023-04-16T08:24:07;20.00;;;17.97;;
77402;SDS011;66472;53.046;8.656;2023-04-16T08:29:03;19.40;;;17.48;;
77402;SDS011;66472;53.046;8.656;2023-04-16T08:33:59;18.42;;;15.13;;
77402;SDS011;66472;53.046;8.656;2023-04-16T08:38:54;20.43;;;15.93;;
77402;SDS011;66472;53.046;8.656;2023-04-16T08:43:49;18.50;;;15.73;;
77402;SDS011;66472;53.046;8.656;2023-04-16T08:48:47;18.37;;;15.27;;
77402;SDS011;66472;53.046;8.656;2023-04-16T08:53:52;18.07;;;15.23;;
77402;SDS011;66472;53.046;8.656;2023-04-16T08:58:47;18.93;;;15.00;;
77402;SDS011;66472;53.046;8.656;2023-04-16T09:03:45;18.87;;;14.43;;
77402;SDS011;66472;53.046;8.656;2023-04-16T09:08:42;17.57;;;14.27;;
77402;SDS011;66472;53.046;8.656;2023-04-16T09:13:38;18.70;;;14.73;;
77402;SDS011;66472;53.046;8.656;2023-04-16T09:18:33;17.67;;;14.40;;
77402;SDS011;66472;53.046;8.656;2023-04-16T09:23:28;15.90;;;13.98;;
77402;SDS011;66472;53.046;8.656;2023-04-16T09:28:40;17.23;;;13.97;;
77402;SDS011;66472;53.046;8.656;2023-04-16T09:33:35;16.40;;;14.63;;
77402;SDS011;66472;53.046;8.656;2023-04-16T09:38:49;18.03;;;16.13;;
77402;SDS011;66472;53.046;8.656;2023-04-16T09:43:52;16.20;;;14.37;;
77402;SDS011;66472;53.046;8.656;2023-04-16T09:48:48;16.53;;;14.17;;
77402;SDS011;66472;53.046;8.656;2023-04-16T09:53:44;17.50;;;14.97;;
77402;SDS011;66472;53.046;8.656;2023-04-16T09:58:39;17.27;;;15.03;;
77402;SDS011;66472;53.046;8.656;2023-04-16T10:03:36;16.40;;;14.67;;
77402;SDS011;66472;53.046;8.656;2023-04-16T10:08:31;18.70;;;15.33;;
77402;SDS011;66472;53.046;8.656;2023-04-16T10:13:27;17.20;;;14.97;;
77402;SDS011;66472;53.046;8.656;2023-04-16T10:18:22;17.93;;;14.97;;
77402;SDS011;66472;53.046;8.656;2023-04-16T10:23:18;16.03;;;14.33;;
77402;SDS011;66472;53.046;8.656;2023-04-16T10:28:14;17.03;;;13.90;;
77402;SDS011;66472;53.046;8.656;2023-04-16T10:33:10;14.90;;;12.73;;
77402;SDS011;66472;53.046;8.656;2023-04-16T10:38:26;14.90;;;13.37;;
77402;SDS011;66472;53.046;8.656;2023-04-16T10:43:21;14.00;;;12.60;;
77402;SDS011;66472;53.046;8.656;2023-04-16T10:48:19;13.40;;;12.10;;
77402;SDS011;66472;53.046;8.656;2023-04-16T10:53:18;13.73;;;12.03;;
77402;SDS011;66472;53.046;8.656;2023-04-16T10:58:30;13.67;;;12.27;;
77402;SDS011;66472;53.046;8.656;2023-04-16T11:03:31;14.50;;;12.40;;
77402;SDS011;66472;53.046;8.656;2023-04-16T11:08:27;14.00;;;12.53;;
77402;SDS011;66472;53.046;8.656;2023-04-16T11:13:22;12.67;;;11.37;;
77402;SDS011;66472;53.046;8.656;2023-04-16T11:18:18;13.47;;;12.07;;
77402;SDS011;66472;53.046;8.656;2023-04-16T11:23:13;15.67;;;12.07;;
77402;SDS011;66472;53.046;8.656;2023-04-16T11:28:09;14.53;;;13.10;;
77402;SDS011;66472;53.046;8.656;2023-04-16T11:33:04;13.53;;;12.10;;
77402;SDS011;66472;53.046;8.656;2023-04-16T11:38:01;15.57;;;12.67;;
77402;SDS011;66472;53.046;8.656;2023-04-16T11:43:00;14.83;;;13.37;;
77402;SDS011;66472;53.046;8.656;2023-04-16T11:47:56;13.80;;;12.50;;
77402;SDS011;66472;53.046;8.656;2023-04-16T11:52:52;14.00;;;12.50;;
77402;SDS011;66472;53.046;8.656;2023-04-16T11:57:48;14.10;;;12.33;;
77402;SDS011;66472;53.046;8.656;2023-04-16T12:02:50;14.20;;;12.37;;
77402;SDS011;66472;53.046;8.656;2023-04-16T12:07:46;17.30;;;12.70;;
77402;SDS011;66472;53.046;8.656;2023-04-16T12:12:41;18.37;;;12.67;;
77402;SDS011;66472;53.046;8.656;2023-04-16T12:17:36;14.10;;;12.30;;
77402;SDS011;66472;53.046;8.656;2023-04-16T12:22:33;15.43;;;12.13;;
77402;SDS011;66472;53.046;8.656;2023-04-16T12:32:36;14.50;;;13.10;;
77402;SDS011;66472;53.046;8.656;2023-04-16T12:37:31;14.40;;;12.90;;
77402;SDS011;66472;53.046;8.656;2023-04-16T12:42:26;15.02;;;13.45;;
77402;SDS011;66472;53.046;8.656;2023-04-16T12:47:22;15.07;;;13.23;;
77402;SDS011;66472;53.046;8.656;2023-04-16T12:52:17;16.03;;;14.03;;
77402;SDS011;66472;53.046;8.656;2023-04-16T12:57:12;15.27;;;12.10;;
77402;SDS011;66472;53.046;8.656;2023-04-16T13:02:08;15.83;;;11.63;;
77402;SDS011;66472;53.046;8.656;2023-04-16T13:07:03;13.10;;;11.52;;
77402;SDS011;66472;53.046;8.656;2023-04-16T13:11:58;13.50;;;12.10;;
77402;SDS011;66472;53.046;8.656;2023-04-16T13:16:53;16.53;;;13.30;;
77402;SDS011;66472;53.046;8.656;2023-04-16T13:21:49;14.63;;;13.13;;
77402;SDS011;66472;53.046;8.656;2023-04-16T13:26:44;16.63;;;13.67;;
77402;SDS011;66472;53.046;8.656;2023-04-16T13:31:39;14.57;;;13.07;;
77402;SDS011;66472;53.046;8.656;2023-04-16T13:36:35;18.90;;;14.93;;
77402;SDS011;66472;53.046;8.656;2023-04-16T13:41:30;16.23;;;14.57;;
77402;SDS011;66472;53.046;8.656;2023-04-16T13:46:25;16.77;;;15.07;;
77402;SDS011;66472;53.046;8.656;2023-04-16T13:51:21;16.30;;;14.60;;
77402;SDS011;66472;53.046;8.656;2023-04-16T13:56:16;20.30;;;15.20;;
77402;SDS011;66472;53.046;8.656;2023-04-16T14:01:11;18.00;;;16.10;;
77402;SDS011;66472;53.046;8.656;2023-04-16T14:06:07;16.37;;;14.17;;
77402;SDS011;66472;53.046;8.656;2023-04-16T14:11:02;18.07;;;16.17;;
77402;SDS011;66472;53.046;8.656;2023-04-16T14:21:04;17.47;;;15.57;;
77402;SDS011;66472;53.046;8.656;2023-04-16T14:25:59;17.80;;;15.90;;
77402;SDS011;66472;53.046;8.656;2023-04-16T14:30:55;21.10;;;16.17;;
77402;SDS011;66472;53.046;8.656;2023-04-16T14:35:50;17.30;;;14.90;;
77402;SDS011;66472;53.046;8.656;2023-04-16T14:40:46;15.70;;;14.20;;
77402;SDS011;66472;53.046;8.656;2023-04-16T14:45:42;16.60;;;14.90;;
77402;SDS011;66472;53.046;8.656;2023-04-16T14:50:37;16.73;;;14.80;;
77402;SDS011;66472;53.046;8.656;2023-04-16T14:55:33;19.80;;;16.27;;
77402;SDS011;66472;53.046;8.656;2023-04-16T15:00:28;17.27;;;14.33;;
77402;SDS011;66472;53.046;8.656;2023-04-16T15:05:23;18.70;;;15.38;;
77402;SDS011;66472;53.046;8.656;2023-04-16T15:10:19;16.70;;;15.03;;
77402;SDS011;66472;53.046;8.656;2023-04-16T15:15:14;15.60;;;13.93;;
77402;SDS011;66472;53.046;8.656;2023-04-16T15:20:09;17.10;;;14.77;;
77402;SDS011;66472;53.046;8.656;2023-04-16T15:25:05;19.53;;;14.53;;
77402;SDS011;66472;53.046;8.656;2023-04-16T15:30:01;17.53;;;15.63;;
77402;SDS011;66472;53.046;8.656;2023-04-16T15:34:56;16.93;;;15.13;;
77402;SDS011;66472;53.046;8.656;2023-04-16T15:39:51;18.23;;;15.20;;
77402;SDS011;66472;53.046;8.656;2023-04-16T15:44:47;15.70;;;14.07;;
77402;SDS011;66472;53.046;8.656;2023-04-16T15:49:42;16.20;;;14.60;;
77402;SDS011;66472;53.046;8.656;2023-04-16T15:54:37;20.10;;;15.10;;
77402;SDS011;66472;53.046;8.656;2023-04-16T15:59:32;16.80;;;15.00;;
77402;SDS011;66472;53.046;8.656;2023-04-16T16:04:28;17.52;;;15.65;;
77402;SDS011;66472;53.046;8.656;2023-04-16T16:09:23;19.05;;;16.70;;
77402;SDS011;66472;53.046;8.656;2023-04-16T16:14:22;20.00;;;17.30;;
77402;SDS011;66472;53.046;8.656;2023-04-16T16:19:17;21.60;;;18.00;;
77402;SDS011;66472;53.046;8.656;2023-04-16T16:24:12;20.67;;;18.33;;
77402;SDS011;66472;53.046;8.656;2023-04-16T16:29:08;20.63;;;18.52;;
77402;SDS011;66472;53.046;8.656;2023-04-16T16:34:03;22.37;;;18.67;;
77402;SDS011;66472;53.046;8.656;2023-04-16T16:38:58;18.47;;;16.47;;
77402;SDS011;66472;53.046;8.656;2023-04-16T16:43:53;22.97;;;19.03;;
77402;SDS011;66472;53.046;8.656;2023-04-16T16:48:50;21.47;;;19.13;;
77402;SDS011;66472;53.046;8.656;2023-04-16T16:53:45;20.43;;;18.33;;
77402;SDS011;66472;53.046;8.656;2023-04-16T16:58:40;21.60;;;17.73;;
77402;SDS011;66472;53.046;8.656;2023-04-16T17:03:36;25.67;;;18.77;;
77402;SDS011;66472;53.046;8.656;2023-04-16T17:08:31;22.60;;;20.00;;
77402;SDS011;66472;53.046;8.656;2023-04-16T17:13:26;21.93;;;19.57;;
77402;SDS011;66472;53.046;8.656;2023-04-16T17:18:21;24.73;;;18.63;;
77402;SDS011;66472;53.046;8.656;2023-04-16T17:23:17;22.50;;;19.23;;
77402;SDS011;66472;53.046;8.656;2023-04-16T17:28:12;23.70;;;18.90;;
77402;SDS011;66472;53.046;8.656;2023-04-16T17:33:07;20.93;;;18.70;;
77402;SDS011;66472;53.046;8.656;2023-04-16T17:38:02;18.97;;;16.63;;
77402;SDS011;66472;53.046;8.656;2023-04-16T17:42:58;18.05;;;15.68;;
77402;SDS011;66472;53.046;8.656;2023-04-16T17:47:53;18.40;;;16.10;;
77402;SDS011;66472;53.046;8.656;2023-04-16T17:52:51;21.43;;;15.90;;
77402;SDS011;66472;53.046;8.656;2023-04-16T17:57:47;18.03;;;15.63;;
77402;SDS011;66472;53.046;8.656;2023-04-16T18:02:42;21.00;;;16.40;;
77402;SDS011;66472;53.046;8.656;2023-04-16T18:07:37;19.13;;;16.17;;
77402;SDS011;66472;53.046;8.656;2023-04-16T18:12:33;18.17;;;16.23;;
77402;SDS011;66472;53.046;8.656;2023-04-16T18:17:28;20.70;;;16.77;;
77402;SDS011;66472;53.046;8.656;2023-04-16T18:22:24;19.77;;;15.97;;
77402;SDS011;66472;53.046;8.656;2023-04-16T18:27:19;20.23;;;16.00;;
77402;SDS011;66472;53.046;8.656;2023-04-16T18:32:15;23.30;;;17.10;;
77402;SDS011;66472;53.046;8.656;2023-04-16T18:37:10;17.97;;;15.93;;
77402;SDS011;66472;53.046;8.656;2023-04-16T18:42:06;22.00;;;16.07;;
77402;SDS011;66472;53.046;8.656;2023-04-16T18:47:01;18.17;;;15.93;;
77402;SDS011;66472;53.046;8.656;2023-04-16T18:51:57;19.93;;;16.27;;
77402;SDS011;66472;53.046;8.656;2023-04-16T18:56:52;17.73;;;15.93;;
77402;SDS011;66472;53.046;8.656;2023-04-16T19:01:47;18.35;;;15.07;;
77402;SDS011;66472;53.046;8.656;2023-04-16T19:06:43;20.85;;;18.75;;
77402;SDS011;66472;53.046;8.656;2023-04-16T19:11:39;19.03;;;17.10;;
77402;SDS011;66472;53.046;8.656;2023-04-16T19:16:34;19.60;;;17.63;;
77402;SDS011;66472;53.046;8.656;2023-04-16T19:21:29;18.87;;;17.07;;
77402;SDS011;66472;53.046;8.656;2023-04-16T19:26:25;19.27;;;17.33;;
77402;SDS011;66472;53.046;8.656;2023-04-16T19:31:21;20.80;;;16.77;;
77402;SDS011;66472;53.046;8.656;2023-04-16T19:36:16;21.53;;;17.63;;
77402;SDS011;66472;53.046;8.656;2023-04-16T19:41:11;18.67;;;16.93;;
77402;SDS011;66472;53.046;8.656;2023-04-16T19:46:06;16.07;;;14.57;;
77402;SDS011;66472;53.046;8.656;2023-04-16T19:51:02;17.90;;;16.00;;
77402;SDS011;66472;53.046;8.656;2023-04-16T19:55:57;20.33;;;15.53;;
77402;SDS011;66472;53.046;8.656;2023-04-16T20:00:53;20.17;;;18.17;;
77402;SDS011;66472;53.046;8.656;2023-04-16T20:05:49;21.43;;;19.23;;
77402;SDS011;66472;53.046;8.656;2023-04-16T20:10:44;21.43;;;19.13;;
77402;SDS011;66472;53.046;8.656;2023-04-16T20:15:39;20.10;;;18.00;;
77402;SDS011;66472;53.046;8.656;2023-04-16T20:20:35;19.85;;;16.85;;
77402;SDS011;66472;53.046;8.656;2023-04-16T20:25:31;18.47;;;16.57;;
77402;SDS011;66472;53.046;8.656;2023-04-16T20:30:27;21.27;;;18.10;;
77402;SDS011;66472;53.046;8.656;2023-04-16T20:35:23;21.33;;;19.23;;
77402;SDS011;66472;53.046;8.656;2023-04-16T20:40:18;22.27;;;20.00;;
77402;SDS011;66472;53.046;8.656;2023-04-16T20:45:15;22.67;;;20.23;;
77402;SDS011;66472;53.046;8.656;2023-04-16T20:50:10;22.27;;;20.00;;
77402;SDS011;66472;53.046;8.656;2023-04-16T20:55:06;21.17;;;19.17;;
77402;SDS011;66472;53.046;8.656;2023-04-16T21:00:11;22.60;;;20.37;;
77402;SDS011;66472;53.046;8.656;2023-04-16T21:05:06;23.03;;;20.73;;
77402;SDS011;66472;53.046;8.656;2023-04-16T21:10:04;21.20;;;19.10;;
77402;SDS011;66472;53.046;8.656;2023-04-16T21:15:00;20.97;;;18.77;;
77402;SDS011;66472;53.046;8.656;2023-04-16T21:19:55;21.83;;;19.57;;
77402;SDS011;66472;53.046;8.656;2023-04-16T21:24:50;23.07;;;19.83;;
77402;SDS011;66472;53.046;8.656;2023-04-16T21:29:46;26.80;;;21.57;;
77402;SDS011;66472;53.046;8.656;2023-04-16T21:34:41;23.55;;;21.00;;
77402;SDS011;66472;53.046;8.656;2023-04-16T21:39:36;23.80;;;21.50;;
77402;SDS011;66472;53.046;8.656;2023-04-16T21:44:31;25.07;;;22.53;;
77402;SDS011;66472;53.046;8.656;2023-04-16T21:49:27;25.87;;;22.50;;
77402;SDS011;66472;53.046;8.656;2023-04-16T21:54:22;26.37;;;23.27;;
77402;SDS011;66472;53.046;8.656;2023-04-16T21:59:17;28.00;;;25.10;;
77402;SDS011;66472;53.046;8.656;2023-04-16T22:04:12;26.83;;;24.13;;
77402;SDS011;66472;53.046;8.656;2023-04-16T22:09:08;27.60;;;24.70;;
77402;SDS011;66472;53.046;8.656;2023-04-16T22:14:03;27.00;;;24.02;;
77402;SDS011;66472;53.046;8.656;2023-04-16T22:19:02;26.63;;;23.83;;
77402;SDS011;66472;53.046;8.656;2023-04-16T22:23:58;30.77;;;25.05;;
77402;SDS011;66472;53.046;8.656;2023-04-16T22:28:53;29.83;;;26.83;;
77402;SDS011;66472;53.046;8.656;2023-04-16T22:33:48;28.17;;;25.40;;
77402;SDS011;66472;53.046;8.656;2023-04-16T22:38:43;27.90;;;24.90;;
77402;SDS011;66472;53.046;8.656;2023-04-16T22:43:39;27.23;;;24.47;;
77402;SDS011;66472;53.046;8.656;2023-04-16T22:48:35;28.23;;;25.33;;
77402;SDS011;66472;53.046;8.656;2023-04-16T22:53:32;26.63;;;23.77;;
77402;SDS011;66472;53.046;8.656;2023-04-16T22:58:27;27.27;;;24.17;;
77402;SDS011;66472;53.046;8.656;2023-04-16T23:03:22;28.43;;;25.23;;
77402;SDS011;66472;53.046;8.656;2023-04-16T23:08:17;27.83;;;24.98;;
77402;SDS011;66472;53.046;8.656;2023-04-16T23:13:13;29.27;;;25.80;;
77402;SDS011;66472;53.046;8.656;2023-04-16T23:18:08;28.55;;;25.65;;
77402;SDS011;66472;53.046;8.656;2023-04-16T23:23:03;27.63;;;24.75;;
77402;SDS011;66472;53.046;8.656;2023-04-16T23:27:58;30.58;;;27.38;;
77402;SDS011;66472;53.046;8.656;2023-04-16T23:32:54;28.23;;;25.07;;
77402;SDS011;66472;53.046;8.656;2023-04-16T23:37:49;28.67;;;23.92;;
77402;SDS011;66472;53.046;8.656;2023-04-16T23:42:44;28.93;;;24.97;;
77402;SDS011;66472;53.046;8.656;2023-04-16T23:47:40;27.33;;;24.33;;
77402;SDS011;66472;53.046;8.656;2023-04-16T23:52:35;27.43;;;24.43;;
77402;SDS011;66472;53.046;8.656;2023-04-16T23:57:30;26.20;;;23.40;;
